Time,TemperatureF,DewpointF,PressureIn,WindDirection,WindDirectionDegrees,WindSpeedMPH,WindSpeedGustMPH,Humidity,HourlyPrecipIn,Conditions,Clouds,dailyrainin,SoftwareType,DateUTC
2013-07-31 00:02:00,85.0,-99.9,-100.00,SSW,205,6.0,6.0,-999,-99.99,,,-99.99,,2013-07-31 07:02:00,
2013-07-31 00:12:00,85.0,-99.9,-100.00,NNE,33,2.0,5.0,-999,-99.99,,,-99.99,,2013-07-31 07:12:00,
2013-07-31 00:30:00,84.0,-99.9,-100.00,South,177,7.0,7.0,-999,-99.99,,,-99.99,,2013-07-31 07:30:00,
2013-07-31 02:02:00,84.0,-99.9,-100.00,NW,313,0.0,6.0,-999,-99.99,,,-99.99,,2013-07-31 09:02:00,
2013-07-31 02:12:00,84.0,-99.9,-100.00,NW,313,0.0,6.0,-999,-99.99,,,-99.99,,2013-07-31 09:12:00,
2013-07-31 02:30:00,83.0,-99.9,-100.00,SSE,156,6.0,11.0,-999,-99.99,,,-99.99,,2013-07-31 09:30:00,
2013-07-31 02:33:00,83.0,-99.9,-100.00,SSW,193,6.0,11.0,-999,-99.99,,,-99.99,,2013-07-31 09:33:00,
2013-07-31 03:10:00,80.0,-99.9,-100.00,SSW,205,4.0,8.0,-999,-99.99,,,-99.99,,2013-07-31 10:10:00,
2013-07-31 03:12:00,83.0,-99.9,-100.00,SSE,156,6.0,11.0,-999,-99.99,,,-99.99,,2013-07-31 10:12:00,
2013-07-31 03:23:00,83.0,-99.9,-100.00,SSE,156,6.0,11.0,-999,-99.99,,,-99.99,,2013-07-31 10:23:00,
2013-07-31 03:52:00,80.0,-99.9,-100.00,SSW,205,4.0,8.0,-999,-99.99,,,-99.99,,2013-07-31 10:52:00,
2013-07-31 04:00:00,80.0,-99.9,-100.00,NNE,16,6.0,11.0,-999,-99.99,,,-99.99,,2013-07-31 11:00:00,
2013-07-31 04:03:00,80.0,-99.9,-100.00,SSW,205,4.0,8.0,-999,-99.99,,,-99.99,,2013-07-31 11:03:00,
2013-07-31 04:33:00,80.0,-99.9,-100.00,SSE,162,2.0,11.0,-999,-99.99,,,-99.99,,2013-07-31 11:33:00,
2013-07-31 05:10:00,80.0,-99.9,-100.00,NE,35,7.0,9.0,-999,-99.99,,,-99.99,,2013-07-31 12:10:00,
2013-07-31 06:02:00,80.0,-99.9,-100.00,NE,35,7.0,9.0,-999,-99.99,,,-99.99,,2013-07-31 13:02:00,
2013-07-31 06:50:00,82.0,-99.9,-100.00,NNW,328,1.0,1.0,-999,-99.99,,,-99.99,,2013-07-31 13:50:00,
2013-07-31 07:30:00,82.0,-99.9,-100.00,SSW,193,5.0,10.0,-999,-99.99,,,-99.99,,2013-07-31 14:30:00,
2013-07-31 08:23:00,82.0,-99.9,-100.00,SSW,193,5.0,10.0,-999,-99.99,,,-99.99,,2013-07-31 15:23:00,
2013-07-31 09:00:00,87.0,-99.9,-100.00,SW,216,4.0,7.0,-999,-99.99,,,-99.99,,2013-07-31 16:00:00,
2013-07-31 09:50:00,89.0,-99.9,-100.00,WSW,242,4.0,10.0,-999,-99.99,,,-99.99,,2013-07-31 16:50:00,
2013-07-31 09:53:00,87.0,-99.9,-100.00,SW,216,4.0,7.0,-999,-99.99,,,-99.99,,2013-07-31 16:53:00,
2013-07-31 10:40:00,91.0,-99.9,-100.00,SSW,208,6.0,8.0,-999,-99.99,,,-99.99,,2013-07-31 17:40:00,
2013-07-31 10:43:00,89.0,-99.9,-100.00,WSW,242,4.0,10.0,-999,-99.99,,,-99.99,,2013-07-31 17:43:00,
2013-07-31 11:00:00,92.0,-99.9,-100.00,West,261,4.0,7.0,-999,-99.99,,,-99.99,,2013-07-31 18:00:00,
2013-07-31 11:02:00,91.0,-99.9,-100.00,SSW,207,2.0,8.0,-999,-99.99,,,-99.99,,2013-07-31 18:02:00,
2013-07-31 11:13:00,91.0,-99.9,-100.00,SSW,207,2.0,8.0,-999,-99.99,,,-99.99,,2013-07-31 18:13:00,
2013-07-31 11:33:00,91.0,-99.9,-100.00,SSW,208,6.0,8.0,-999,-99.99,,,-99.99,,2013-07-31 18:33:00,
2013-07-31 11:52:00,92.0,-99.9,-100.00,West,261,4.0,7.0,-999,-99.99,,,-99.99,,2013-07-31 18:52:00,
2013-07-31 12:53:00,96.0,-99.9,-100.00,WSW,250,7.0,7.0,-999,-99.99,,,-99.99,,2013-07-31 19:53:00,
2013-07-31 13:03:00,96.0,-99.9,-100.00,WSW,250,7.0,7.0,-999,-99.99,,,-99.99,,2013-07-31 20:03:00,
2013-07-31 13:13:00,98.0,-99.9,-100.00,SW,217,6.0,8.0,-999,-99.99,,,-99.99,,2013-07-31 20:13:00,
2013-07-31 13:23:00,98.0,-99.9,-100.00,SW,217,6.0,8.0,-999,-99.99,,,-99.99,,2013-07-31 20:23:00,
2013-07-31 13:43:00,99.0,-99.9,-100.00,SW,223,11.0,12.0,-999,-99.99,,,-99.99,,2013-07-31 20:43:00,
2013-07-31 13:53:00,99.0,-99.9,-100.00,SW,223,11.0,12.0,-999,-99.99,,,-99.99,,2013-07-31 20:53:00,
2013-07-31 14:20:00,102.0,-99.9,-100.00,South,190,2.0,16.0,-999,-99.99,,,-99.99,,2013-07-31 21:20:00,
2013-07-31 15:13:00,102.0,-99.9,-100.00,South,190,2.0,16.0,-999,-99.99,,,-99.99,,2013-07-31 22:13:00,
2013-07-31 15:43:00,102.0,-99.9,-100.00,WNW,287,10.0,10.0,-999,-99.99,,,-99.99,,2013-07-31 22:43:00,
2013-07-31 15:53:00,102.0,-99.9,-100.00,WNW,287,10.0,10.0,-999,-99.99,,,-99.99,,2013-07-31 22:53:00,
2013-07-31 16:12:00,102.0,-99.9,-100.00,WSW,255,6.0,14.0,-999,-99.99,,,-99.99,,2013-07-31 23:12:00,
2013-07-31 16:22:00,102.0,-99.9,-100.00,West,265,12.0,14.0,-999,-99.99,,,-99.99,,2013-07-31 23:22:00,
2013-07-31 16:32:00,102.0,-99.9,-100.00,West,265,12.0,14.0,-999,-99.99,,,-99.99,,2013-07-31 23:32:00,
2013-07-31 16:43:00,102.0,-99.9,-100.00,SSW,202,11.0,13.0,-999,-99.99,,,-99.99,,2013-07-31 23:43:00,
2013-07-31 17:30:00,103.0,-99.9,-100.00,WSW,239,9.0,13.0,-999,-99.99,,,-99.99,,2013-08-01 00:30:00,
2013-07-31 18:22:00,103.0,-99.9,-100.00,WSW,239,9.0,13.0,-999,-99.99,,,-99.99,,2013-08-01 01:22:00,
2013-07-31 18:53:00,103.0,-99.9,-100.00,WSW,252,12.0,13.0,-999,-99.99,,,-99.99,,2013-08-01 01:53:00,
2013-07-31 19:03:00,103.0,-99.9,-100.00,WSW,241,7.0,12.0,-999,-99.99,,,-99.99,,2013-08-01 02:03:00,
2013-07-31 19:13:00,103.0,-99.9,-100.00,WSW,241,7.0,12.0,-999,-99.99,,,-99.99,,2013-08-01 02:13:00,
2013-07-31 19:32:00,102.0,-99.9,-100.00,WSW,255,6.0,11.0,-999,-99.99,,,-99.99,,2013-08-01 02:32:00,
2013-07-31 19:43:00,102.0,-99.9,-100.00,WSW,255,6.0,11.0,-999,-99.99,,,-99.99,,2013-08-01 02:43:00,
2013-07-31 19:53:00,102.0,-99.9,-100.00,WSW,255,6.0,11.0,-999,-99.99,,,-99.99,,2013-08-01 02:53:00,
2013-07-31 20:22:00,101.0,-99.9,-100.00,WSW,258,11.0,11.0,-999,-99.99,,,-99.99,,2013-08-01 03:22:00,
2013-07-31 20:32:00,99.0,-99.9,-100.00,WSW,252,7.0,10.0,-999,-99.99,,,-99.99,,2013-08-01 03:32:00,
2013-07-31 20:43:00,99.0,-99.9,-100.00,WSW,252,7.0,10.0,-999,-99.99,,,-99.99,,2013-08-01 03:43:00,
2013-07-31 20:53:00,99.0,-99.9,-100.00,WSW,252,7.0,10.0,-999,-99.99,,,-99.99,,2013-08-01 03:53:00,
2013-07-31 21:10:00,94.0,-99.9,-100.00,WSW,256,5.0,7.0,-999,-99.99,,,-99.99,,2013-08-01 04:10:00,
2013-07-31 21:40:00,93.0,-99.9,-100.00,West,265,1.0,5.0,-999,-99.99,,,-99.99,,2013-08-01 04:40:00,
2013-07-31 21:53:00,94.0,-99.9,-100.00,WSW,256,5.0,7.0,-999,-99.99,,,-99.99,,2013-08-01 04:53:00,
2013-07-31 22:03:00,94.0,-99.9,-100.00,WSW,256,5.0,7.0,-999,-99.99,,,-99.99,,2013-08-01 05:03:00,
2013-07-31 22:23:00,93.0,-99.9,-100.00,West,265,1.0,5.0,-999,-99.99,,,-99.99,,2013-08-01 05:23:00,
2013-07-31 22:33:00,93.0,-99.9,-100.00,West,265,1.0,5.0,-999,-99.99,,,-99.99,,2013-08-01 05:33:00,
2013-07-31 23:13:00,92.0,-99.9,-100.00,SW,235,3.0,3.0,-999,-99.99,,,-99.99,,2013-08-01 06:13:00,
2013-07-31 23:23:00,92.0,-99.9,-100.00,SW,235,3.0,3.0,-999,-99.99,,,-99.99,,2013-08-01 06:23:00,
2013-07-31 23:55:00,90.0,-99.9,-100.00,North,352,7.0,7.0,-999,-99.99,,,-99.99,,2013-08-01 06:55:00,